sensor_id;sensor_type;location;lat;lon;timestamp;P1;durP1;ratioP1;P2;durP2;ratioP2
68386;SDS011;55338;43.062;25.624;2023-04-06T00:01:50;7.00;;;4.28;;
68386;SDS011;55338;43.062;25.624;2023-04-06T00:04:15;8.27;;;3.93;;
68386;SDS011;55338;43.062;25.624;2023-04-06T00:06:41;10.88;;;5.05;;
68386;SDS011;55338;43.062;25.624;2023-04-06T00:09:07;7.75;;;4.20;;
68386;SDS011;55338;43.062;25.624;2023-04-06T00:11:33;9.38;;;4.93;;
68386;SDS011;55338;43.062;25.624;2023-04-06T00:13:59;10.07;;;5.10;;
68386;SDS011;55338;43.062;25.624;2023-04-06T00:16:25;10.35;;;4.63;;
68386;SDS011;55338;43.062;25.624;2023-04-06T00:18:51;8.70;;;5.00;;
68386;SDS011;55338;43.062;25.624;2023-04-06T00:21:17;8.18;;;4.38;;
68386;SDS011;55338;43.062;25.624;2023-04-06T00:23:43;8.97;;;4.80;;
68386;SDS011;55338;43.062;25.624;2023-04-06T00:26:08;8.70;;;4.70;;
68386;SDS011;55338;43.062;25.624;2023-04-06T00:28:36;8.23;;;4.45;;
68386;SDS011;55338;43.062;25.624;2023-04-06T00:31:02;9.18;;;5.00;;
68386;SDS011;55338;43.062;25.624;2023-04-06T00:33:28;9.33;;;4.93;;
68386;SDS011;55338;43.062;25.624;2023-04-06T00:35:54;10.65;;;5.55;;
68386;SDS011;55338;43.062;25.624;2023-04-06T00:38:20;8.23;;;4.90;;
68386;SDS011;55338;43.062;25.624;2023-04-06T00:40:46;7.68;;;5.00;;
68386;SDS011;55338;43.062;25.624;2023-04-06T00:43:12;10.40;;;5.20;;
68386;SDS011;55338;43.062;25.624;2023-04-06T00:45:39;8.90;;;4.82;;
68386;SDS011;55338;43.062;25.624;2023-04-06T00:48:06;8.07;;;5.30;;
68386;SDS011;55338;43.062;25.624;2023-04-06T00:50:32;8.70;;;5.07;;
68386;SDS011;55338;43.062;25.624;2023-04-06T00:52:58;7.55;;;4.30;;
68386;SDS011;55338;43.062;25.624;2023-04-06T00:55:25;9.60;;;4.97;;
68386;SDS011;55338;43.062;25.624;2023-04-06T00:57:51;8.38;;;4.30;;
68386;SDS011;55338;43.062;25.624;2023-04-06T01:00:17;8.30;;;4.43;;
68386;SDS011;55338;43.062;25.624;2023-04-06T01:02:43;8.80;;;4.63;;
68386;SDS011;55338;43.062;25.624;2023-04-06T01:05:10;9.57;;;5.32;;
68386;SDS011;55338;43.062;25.624;2023-04-06T01:07:36;8.77;;;5.00;;
68386;SDS011;55338;43.062;25.624;2023-04-06T01:10:02;8.68;;;4.68;;
68386;SDS011;55338;43.062;25.624;2023-04-06T01:12:29;9.15;;;5.10;;
68386;SDS011;55338;43.062;25.624;2023-04-06T01:14:55;8.00;;;4.93;;
68386;SDS011;55338;43.062;25.624;2023-04-06T01:17:21;10.97;;;4.97;;
68386;SDS011;55338;43.062;25.624;2023-04-06T01:19:47;15.88;;;6.13;;
68386;SDS011;55338;43.062;25.624;2023-04-06T01:22:17;14.57;;;5.53;;
68386;SDS011;55338;43.062;25.624;2023-04-06T01:24:43;11.10;;;5.55;;
68386;SDS011;55338;43.062;25.624;2023-04-06T01:27:09;12.38;;;5.47;;
68386;SDS011;55338;43.062;25.624;2023-04-06T01:29:35;13.57;;;6.30;;
68386;SDS011;55338;43.062;25.624;2023-04-06T01:32:01;10.50;;;5.82;;
68386;SDS011;55338;43.062;25.624;2023-04-06T01:34:27;11.23;;;5.65;;
68386;SDS011;55338;43.062;25.624;2023-04-06T01:36:53;9.83;;;5.83;;
68386;SDS011;55338;43.062;25.624;2023-04-06T01:39:19;11.27;;;5.35;;
68386;SDS011;55338;43.062;25.624;2023-04-06T01:41:45;10.52;;;5.20;;
68386;SDS011;55338;43.062;25.624;2023-04-06T01:44:12;10.48;;;5.88;;
68386;SDS011;55338;43.062;25.624;2023-04-06T01:46:41;12.87;;;6.47;;
68386;SDS011;55338;43.062;25.624;2023-04-06T01:49:07;11.68;;;5.80;;
68386;SDS011;55338;43.062;25.624;2023-04-06T01:51:33;12.18;;;5.90;;
68386;SDS011;55338;43.062;25.624;2023-04-06T01:53:58;12.15;;;5.60;;
68386;SDS011;55338;43.062;25.624;2023-04-06T01:56:24;11.63;;;5.20;;
68386;SDS011;55338;43.062;25.624;2023-04-06T01:58:50;10.60;;;5.20;;
68386;SDS011;55338;43.062;25.624;2023-04-06T02:01:16;10.68;;;5.25;;
68386;SDS011;55338;43.062;25.624;2023-04-06T02:03:42;9.00;;;5.38;;
68386;SDS011;55338;43.062;25.624;2023-04-06T02:06:08;12.73;;;5.47;;
68386;SDS011;55338;43.062;25.624;2023-04-06T02:08:33;8.30;;;4.75;;
68386;SDS011;55338;43.062;25.624;2023-04-06T02:10:59;9.90;;;5.40;;
68386;SDS011;55338;43.062;25.624;2023-04-06T02:13:25;8.73;;;4.32;;
68386;SDS011;55338;43.062;25.624;2023-04-06T02:15:51;8.57;;;4.50;;
68386;SDS011;55338;43.062;25.624;2023-04-06T02:18:17;8.57;;;4.83;;
68386;SDS011;55338;43.062;25.624;2023-04-06T02:20:43;7.85;;;4.32;;
68386;SDS011;55338;43.062;25.624;2023-04-06T02:23:10;8.80;;;5.00;;
68386;SDS011;55338;43.062;25.624;2023-04-06T02:25:36;10.95;;;4.57;;
68386;SDS011;55338;43.062;25.624;2023-04-06T02:28:02;9.07;;;5.03;;
68386;SDS011;55338;43.062;25.624;2023-04-06T02:30:27;11.93;;;5.22;;
68386;SDS011;55338;43.062;25.624;2023-04-06T02:32:54;11.95;;;5.15;;
68386;SDS011;55338;43.062;25.624;2023-04-06T02:35:20;9.03;;;5.17;;
68386;SDS011;55338;43.062;25.624;2023-04-06T02:37:46;10.25;;;5.65;;
68386;SDS011;55338;43.062;25.624;2023-04-06T02:40:13;9.13;;;5.13;;
68386;SDS011;55338;43.062;25.624;2023-04-06T02:42:39;10.53;;;5.40;;
68386;SDS011;55338;43.062;25.624;2023-04-06T02:45:05;9.38;;;5.28;;
68386;SDS011;55338;43.062;25.624;2023-04-06T02:47:33;11.60;;;5.88;;
68386;SDS011;55338;43.062;25.624;2023-04-06T02:49:59;10.15;;;4.65;;
68386;SDS011;55338;43.062;25.624;2023-04-06T02:52:25;12.27;;;5.67;;
68386;SDS011;55338;43.062;25.624;2023-04-06T02:54:51;9.32;;;5.03;;
68386;SDS011;55338;43.062;25.624;2023-04-06T02:57:17;14.00;;;5.70;;
68386;SDS011;55338;43.062;25.624;2023-04-06T02:59:42;12.13;;;5.70;;
68386;SDS011;55338;43.062;25.624;2023-04-06T03:02:08;10.20;;;5.00;;
68386;SDS011;55338;43.062;25.624;2023-04-06T03:04:34;9.20;;;4.93;;
68386;SDS011;55338;43.062;25.624;2023-04-06T03:07:00;8.80;;;5.07;;
68386;SDS011;55338;43.062;25.624;2023-04-06T03:09:26;10.20;;;5.00;;
68386;SDS011;55338;43.062;25.624;2023-04-06T03:11:52;8.35;;;4.95;;
68386;SDS011;55338;43.062;25.624;2023-04-06T03:14:18;10.60;;;5.10;;
68386;SDS011;55338;43.062;25.624;2023-04-06T03:16:47;12.48;;;5.18;;
68386;SDS011;55338;43.062;25.624;2023-04-06T03:19:14;10.27;;;6.05;;
68386;SDS011;55338;43.062;25.624;2023-04-06T03:21:40;11.15;;;5.72;;
68386;SDS011;55338;43.062;25.624;2023-04-06T03:24:06;10.50;;;5.60;;
68386;SDS011;55338;43.062;25.624;2023-04-06T03:26:32;11.20;;;5.10;;
68386;SDS011;55338;43.062;25.624;2023-04-06T03:28:58;11.15;;;5.82;;
68386;SDS011;55338;43.062;25.624;2023-04-06T03:31:25;12.50;;;5.75;;
68386;SDS011;55338;43.062;25.624;2023-04-06T03:33:51;11.50;;;5.97;;
68386;SDS011;55338;43.062;25.624;2023-04-06T03:36:17;11.00;;;6.30;;
68386;SDS011;55338;43.062;25.624;2023-04-06T03:38:43;10.83;;;6.10;;
68386;SDS011;55338;43.062;25.624;2023-04-06T03:41:09;13.20;;;6.97;;
68386;SDS011;55338;43.062;25.624;2023-04-06T03:43:35;12.65;;;6.97;;
68386;SDS011;55338;43.062;25.624;2023-04-06T03:46:00;18.03;;;6.70;;
68386;SDS011;55338;43.062;25.624;2023-04-06T03:48:26;14.57;;;6.90;;
68386;SDS011;55338;43.062;25.624;2023-04-06T03:50:52;14.53;;;6.87;;
68386;SDS011;55338;43.062;25.624;2023-04-06T03:53:18;19.23;;;7.18;;
68386;SDS011;55338;43.062;25.624;2023-04-06T03:55:43;15.25;;;6.50;;
68386;SDS011;55338;43.062;25.624;2023-04-06T03:58:09;11.90;;;6.57;;
68386;SDS011;55338;43.062;25.624;2023-04-06T04:00:35;12.38;;;6.13;;
68386;SDS011;55338;43.062;25.624;2023-04-06T04:03:01;13.40;;;7.23;;
68386;SDS011;55338;43.062;25.624;2023-04-06T04:05:27;12.55;;;6.55;;
68386;SDS011;55338;43.062;25.624;2023-04-06T04:07:53;14.13;;;6.85;;
68386;SDS011;55338;43.062;25.624;2023-04-06T04:10:20;14.23;;;6.05;;
68386;SDS011;55338;43.062;25.624;2023-04-06T04:12:45;13.57;;;6.13;;
68386;SDS011;55338;43.062;25.624;2023-04-06T04:15:11;11.98;;;6.50;;
68386;SDS011;55338;43.062;25.624;2023-04-06T04:17:37;15.13;;;6.25;;
68386;SDS011;55338;43.062;25.624;2023-04-06T04:20:03;11.17;;;5.97;;
68386;SDS011;55338;43.062;25.624;2023-04-06T04:22:29;15.27;;;6.75;;
68386;SDS011;55338;43.062;25.624;2023-04-06T04:24:55;11.77;;;6.23;;
68386;SDS011;55338;43.062;25.624;2023-04-06T04:27:21;15.25;;;7.28;;
68386;SDS011;55338;43.062;25.624;2023-04-06T04:29:47;16.13;;;6.47;;
68386;SDS011;55338;43.062;25.624;2023-04-06T04:32:13;11.57;;;6.23;;
68386;SDS011;55338;43.062;25.624;2023-04-06T04:34:38;13.75;;;6.38;;
68386;SDS011;55338;43.062;25.624;2023-04-06T04:37:07;16.33;;;6.78;;
68386;SDS011;55338;43.062;25.624;2023-04-06T04:39:32;12.10;;;6.97;;
68386;SDS011;55338;43.062;25.624;2023-04-06T04:41:58;12.57;;;6.47;;
68386;SDS011;55338;43.062;25.624;2023-04-06T04:44:25;12.73;;;6.43;;
68386;SDS011;55338;43.062;25.624;2023-04-06T04:46:51;12.55;;;6.90;;
68386;SDS011;55338;43.062;25.624;2023-04-06T04:49:17;13.98;;;6.80;;
68386;SDS011;55338;43.062;25.624;2023-04-06T04:51:43;12.20;;;6.75;;
68386;SDS011;55338;43.062;25.624;2023-04-06T04:54:09;13.95;;;6.75;;
68386;SDS011;55338;43.062;25.624;2023-04-06T04:56:41;13.90;;;7.05;;
68386;SDS011;55338;43.062;25.624;2023-04-06T04:59:07;11.48;;;6.50;;
68386;SDS011;55338;43.062;25.624;2023-04-06T05:01:33;12.20;;;6.70;;
68386;SDS011;55338;43.062;25.624;2023-04-06T05:03:59;12.60;;;6.70;;
68386;SDS011;55338;43.062;25.624;2023-04-06T05:06:25;14.65;;;6.60;;
68386;SDS011;55338;43.062;25.624;2023-04-06T05:08:51;13.52;;;6.57;;
68386;SDS011;55338;43.062;25.624;2023-04-06T05:11:17;12.93;;;6.83;;
68386;SDS011;55338;43.062;25.624;2023-04-06T05:13:43;12.48;;;6.60;;
68386;SDS011;55338;43.062;25.624;2023-04-06T05:16:08;15.07;;;6.40;;
68386;SDS011;55338;43.062;25.624;2023-04-06T05:18:34;14.38;;;7.25;;
68386;SDS011;55338;43.062;25.624;2023-04-06T05:21:00;12.93;;;6.80;;
68386;SDS011;55338;43.062;25.624;2023-04-06T05:23:26;11.83;;;6.83;;
68386;SDS011;55338;43.062;25.624;2023-04-06T05:25:52;15.20;;;7.15;;
68386;SDS011;55338;43.062;25.624;2023-04-06T05:28:18;12.85;;;6.72;;
68386;SDS011;55338;43.062;25.624;2023-04-06T05:30:44;16.88;;;7.50;;
68386;SDS011;55338;43.062;25.624;2023-04-06T05:33:11;19.05;;;7.10;;
68386;SDS011;55338;43.062;25.624;2023-04-06T05:35:37;20.17;;;7.35;;
68386;SDS011;55338;43.062;25.624;2023-04-06T05:38:03;15.10;;;7.93;;
68386;SDS011;55338;43.062;25.624;2023-04-06T05:40:28;24.25;;;7.45;;
68386;SDS011;55338;43.062;25.624;2023-04-06T05:42:54;14.65;;;7.10;;
68386;SDS011;55338;43.062;25.624;2023-04-06T05:45:20;13.40;;;7.20;;
68386;SDS011;55338;43.062;25.624;2023-04-06T05:47:46;12.60;;;6.38;;
68386;SDS011;55338;43.062;25.624;2023-04-06T05:50:13;10.95;;;6.20;;
68386;SDS011;55338;43.062;25.624;2023-04-06T05:52:39;9.80;;;5.85;;
68386;SDS011;55338;43.062;25.624;2023-04-06T05:55:08;12.93;;;5.93;;
68386;SDS011;55338;43.062;25.624;2023-04-06T05:57:34;11.52;;;5.97;;
68386;SDS011;55338;43.062;25.624;2023-04-06T06:00:00;11.07;;;5.32;;
68386;SDS011;55338;43.062;25.624;2023-04-06T06:02:30;11.82;;;6.65;;
68386;SDS011;55338;43.062;25.624;2023-04-06T06:04:56;11.05;;;6.18;;
68386;SDS011;55338;43.062;25.624;2023-04-06T06:07:22;11.90;;;6.43;;
68386;SDS011;55338;43.062;25.624;2023-04-06T06:09:48;11.77;;;6.30;;
68386;SDS011;55338;43.062;25.624;2023-04-06T06:12:15;12.43;;;6.50;;
68386;SDS011;55338;43.062;25.624;2023-04-06T06:14:41;10.60;;;5.03;;
68386;SDS011;55338;43.062;25.624;2023-04-06T06:17:06;24.23;;;6.82;;
68386;SDS011;55338;43.062;25.624;2023-04-06T06:19:33;12.45;;;6.45;;
68386;SDS011;55338;43.062;25.624;2023-04-06T06:21:59;14.05;;;6.30;;
68386;SDS011;55338;43.062;25.624;2023-04-06T06:24:27;17.07;;;6.30;;
68386;SDS011;55338;43.062;25.624;2023-04-06T06:26:53;12.90;;;6.72;;
68386;SDS011;55338;43.062;25.624;2023-04-06T06:29:19;12.85;;;6.15;;
68386;SDS011;55338;43.062;25.624;2023-04-06T06:31:45;18.60;;;6.97;;
68386;SDS011;55338;43.062;25.624;2023-04-06T06:34:11;14.32;;;6.22;;
68386;SDS011;55338;43.062;25.624;2023-04-06T06:36:38;12.90;;;6.68;;
68386;SDS011;55338;43.062;25.624;2023-04-06T06:39:04;14.00;;;6.93;;
68386;SDS011;55338;43.062;25.624;2023-04-06T06:41:30;14.05;;;6.80;;
68386;SDS011;55338;43.062;25.624;2023-04-06T06:43:56;10.20;;;4.88;;
68386;SDS011;55338;43.062;25.624;2023-04-06T06:46:22;9.77;;;5.25;;
68386;SDS011;55338;43.062;25.624;2023-04-06T06:48:47;11.63;;;5.50;;
68386;SDS011;55338;43.062;25.624;2023-04-06T06:51:13;10.70;;;5.57;;
68386;SDS011;55338;43.062;25.624;2023-04-06T06:53:39;11.05;;;5.13;;
68386;SDS011;55338;43.062;25.624;2023-04-06T06:56:05;12.18;;;6.45;;
68386;SDS011;55338;43.062;25.624;2023-04-06T06:58:31;16.40;;;6.00;;
68386;SDS011;55338;43.062;25.624;2023-04-06T07:00:57;11.45;;;6.88;;
68386;SDS011;55338;43.062;25.624;2023-04-06T07:03:24;15.65;;;6.38;;
68386;SDS011;55338;43.062;25.624;2023-04-06T07:05:50;14.38;;;5.82;;
68386;SDS011;55338;43.062;25.624;2023-04-06T07:08:19;9.48;;;5.13;;
68386;SDS011;55338;43.062;25.624;2023-04-06T07:10:46;12.35;;;5.70;;
68386;SDS011;55338;43.062;25.624;2023-04-06T07:13:12;14.18;;;5.97;;
68386;SDS011;55338;43.062;25.624;2023-04-06T07:15:43;11.35;;;5.85;;
68386;SDS011;55338;43.062;25.624;2023-04-06T07:18:09;11.97;;;5.13;;
68386;SDS011;55338;43.062;25.624;2023-04-06T07:20:34;10.73;;;5.43;;
68386;SDS011;55338;43.062;25.624;2023-04-06T07:23:00;16.70;;;6.40;;
68386;SDS011;55338;43.062;25.624;2023-04-06T07:25:27;11.25;;;6.25;;
68386;SDS011;55338;43.062;25.624;2023-04-06T07:27:53;11.00;;;5.18;;
68386;SDS011;55338;43.062;25.624;2023-04-06T07:30:19;11.50;;;4.68;;
68386;SDS011;55338;43.062;25.624;2023-04-06T07:32:47;9.18;;;4.90;;
68386;SDS011;55338;43.062;25.624;2023-04-06T07:35:13;12.30;;;5.75;;
68386;SDS011;55338;43.062;25.624;2023-04-06T07:37:39;10.43;;;5.18;;
68386;SDS011;55338;43.062;25.624;2023-04-06T07:40:05;10.48;;;5.13;;
68386;SDS011;55338;43.062;25.624;2023-04-06T07:42:31;11.27;;;4.70;;
68386;SDS011;55338;43.062;25.624;2023-04-06T07:44:58;14.30;;;5.40;;
68386;SDS011;55338;43.062;25.624;2023-04-06T07:47:24;11.32;;;5.88;;
68386;SDS011;55338;43.062;25.624;2023-04-06T07:49:50;8.35;;;3.97;;
68386;SDS011;55338;43.062;25.624;2023-04-06T07:52:15;11.73;;;6.10;;
68386;SDS011;55338;43.062;25.624;2023-04-06T07:54:41;11.40;;;5.70;;
68386;SDS011;55338;43.062;25.624;2023-04-06T07:57:07;13.63;;;6.13;;
68386;SDS011;55338;43.062;25.624;2023-04-06T07:59:33;14.90;;;5.70;;
68386;SDS011;55338;43.062;25.624;2023-04-06T08:01:58;10.60;;;5.53;;
68386;SDS011;55338;43.062;25.624;2023-04-06T08:04:24;17.02;;;6.68;;
68386;SDS011;55338;43.062;25.624;2023-04-06T08:06:50;12.20;;;6.03;;
68386;SDS011;55338;43.062;25.624;2023-04-06T08:09:16;13.80;;;6.53;;
68386;SDS011;55338;43.062;25.624;2023-04-06T08:11:42;22.63;;;6.15;;
68386;SDS011;55338;43.062;25.624;2023-04-06T08:14:09;9.88;;;5.35;;
68386;SDS011;55338;43.062;25.624;2023-04-06T08:16:35;13.15;;;6.20;;
68386;SDS011;55338;43.062;25.624;2023-04-06T08:19:00;5.55;;;3.13;;
68386;SDS011;55338;43.062;25.624;2023-04-06T08:21:26;10.68;;;5.13;;
68386;SDS011;55338;43.062;25.624;2023-04-06T08:23:52;8.63;;;4.38;;
68386;SDS011;55338;43.062;25.624;2023-04-06T08:26:18;9.60;;;4.83;;
68386;SDS011;55338;43.062;25.624;2023-04-06T08:28:43;15.85;;;7.13;;
68386;SDS011;55338;43.062;25.624;2023-04-06T08:31:09;14.70;;;6.03;;
68386;SDS011;55338;43.062;25.624;2023-04-06T08:33:35;15.05;;;7.43;;
68386;SDS011;55338;43.062;25.624;2023-04-06T08:36:08;11.98;;;6.57;;
68386;SDS011;55338;43.062;25.624;2023-04-06T08:38:35;14.93;;;5.83;;
68386;SDS011;55338;43.062;25.624;2023-04-06T08:41:06;11.18;;;5.70;;
68386;SDS011;55338;43.062;25.624;2023-04-06T08:43:33;9.90;;;5.60;;
68386;SDS011;55338;43.062;25.624;2023-04-06T08:46:07;20.38;;;7.30;;
68386;SDS011;55338;43.062;25.624;2023-04-06T08:48:35;9.27;;;4.88;;
68386;SDS011;55338;43.062;25.624;2023-04-06T08:51:02;10.38;;;5.38;;
68386;SDS011;55338;43.062;25.624;2023-04-06T08:53:28;20.13;;;6.47;;
68386;SDS011;55338;43.062;25.624;2023-04-06T08:55:55;17.02;;;8.52;;
68386;SDS011;55338;43.062;25.624;2023-04-06T08:58:23;13.00;;;7.68;;
68386;SDS011;55338;43.062;25.624;2023-04-06T09:00:50;14.30;;;6.90;;
68386;SDS011;55338;43.062;25.624;2023-04-06T09:03:17;11.02;;;5.75;;
68386;SDS011;55338;43.062;25.624;2023-04-06T09:05:45;10.23;;;5.95;;
68386;SDS011;55338;43.062;25.624;2023-04-06T09:08:12;10.70;;;5.63;;
68386;SDS011;55338;43.062;25.624;2023-04-06T09:10:42;13.82;;;5.55;;
68386;SDS011;55338;43.062;25.624;2023-04-06T09:13:08;10.48;;;5.55;;
68386;SDS011;55338;43.062;25.624;2023-04-06T09:15:34;8.80;;;5.75;;
68386;SDS011;55338;43.062;25.624;2023-04-06T09:18:00;16.27;;;7.35;;
68386;SDS011;55338;43.062;25.624;2023-04-06T09:20:26;11.25;;;6.38;;
68386;SDS011;55338;43.062;25.624;2023-04-06T09:22:53;13.10;;;7.37;;
68386;SDS011;55338;43.062;25.624;2023-04-06T09:25:21;8.93;;;5.13;;
68386;SDS011;55338;43.062;25.624;2023-04-06T09:27:48;8.93;;;5.90;;
68386;SDS011;55338;43.062;25.624;2023-04-06T09:30:23;13.77;;;7.47;;
68386;SDS011;55338;43.062;25.624;2023-04-06T09:32:53;11.57;;;6.47;;
68386;SDS011;55338;43.062;25.624;2023-04-06T09:35:21;10.07;;;5.60;;
68386;SDS011;55338;43.062;25.624;2023-04-06T09:37:48;8.38;;;4.22;;
68386;SDS011;55338;43.062;25.624;2023-04-06T09:40:15;9.52;;;4.90;;
68386;SDS011;55338;43.062;25.624;2023-04-06T09:42:46;13.75;;;6.05;;
68386;SDS011;55338;43.062;25.624;2023-04-06T09:45:13;10.48;;;5.35;;
68386;SDS011;55338;43.062;25.624;2023-04-06T09:47:40;9.20;;;5.07;;
68386;SDS011;55338;43.062;25.624;2023-04-06T09:50:08;12.05;;;5.43;;
68386;SDS011;55338;43.062;25.624;2023-04-06T09:52:46;7.78;;;4.05;;
68386;SDS011;55338;43.062;25.624;2023-04-06T09:55:17;7.20;;;3.25;;
68386;SDS011;55338;43.062;25.624;2023-04-06T09:57:55;4.50;;;2.78;;
68386;SDS011;55338;43.062;25.624;2023-04-06T10:00:27;10.83;;;6.20;;
68386;SDS011;55338;43.062;25.624;2023-04-06T10:05:46;7.60;;;3.47;;
68386;SDS011;55338;43.062;25.624;2023-04-06T10:08:16;9.88;;;4.50;;
68386;SDS011;55338;43.062;25.624;2023-04-06T10:10:43;11.50;;;4.97;;
68386;SDS011;55338;43.062;25.624;2023-04-06T10:13:10;9.87;;;4.97;;
68386;SDS011;55338;43.062;25.624;2023-04-06T10:15:37;8.30;;;4.80;;
68386;SDS011;55338;43.062;25.624;2023-04-06T10:18:05;13.43;;;5.40;;
68386;SDS011;55338;43.062;25.624;2023-04-06T10:20:36;13.30;;;6.00;;
68386;SDS011;55338;43.062;25.624;2023-04-06T10:23:32;9.93;;;5.47;;
68386;SDS011;55338;43.062;25.624;2023-04-06T10:25:59;9.70;;;4.80;;
68386;SDS011;55338;43.062;25.624;2023-04-06T10:28:30;8.10;;;4.15;;
68386;SDS011;55338;43.062;25.624;2023-04-06T10:30:58;8.90;;;4.45;;
68386;SDS011;55338;43.062;25.624;2023-04-06T10:33:25;7.80;;;4.65;;
68386;SDS011;55338;43.062;25.624;2023-04-06T10:35:51;10.93;;;4.57;;
68386;SDS011;55338;43.062;25.624;2023-04-06T10:38:18;7.70;;;4.43;;
68386;SDS011;55338;43.062;25.624;2023-04-06T10:40:47;9.68;;;4.47;;
68386;SDS011;55338;43.062;25.624;2023-04-06T10:43:19;8.70;;;4.85;;
68386;SDS011;55338;43.062;25.624;2023-04-06T10:45:54;8.75;;;4.45;;
68386;SDS011;55338;43.062;25.624;2023-04-06T10:48:21;8.47;;;4.33;;
68386;SDS011;55338;43.062;25.624;2023-04-06T10:50:51;9.90;;;5.00;;
68386;SDS011;55338;43.062;25.624;2023-04-06T10:53:21;8.63;;;4.13;;
68386;SDS011;55338;43.062;25.624;2023-04-06T10:55:49;8.27;;;4.50;;
68386;SDS011;55338;43.062;25.624;2023-04-06T10:58:19;6.80;;;4.28;;
68386;SDS011;55338;43.062;25.624;2023-04-06T11:00:46;9.00;;;4.93;;
68386;SDS011;55338;43.062;25.624;2023-04-06T11:03:14;9.80;;;4.80;;
68386;SDS011;55338;43.062;25.624;2023-04-06T11:05:47;10.27;;;5.00;;
68386;SDS011;55338;43.062;25.624;2023-04-06T11:08:30;10.55;;;6.20;;
68386;SDS011;55338;43.062;25.624;2023-04-06T11:11:06;9.53;;;5.50;;
68386;SDS011;55338;43.062;25.624;2023-04-06T11:21:18;8.30;;;4.05;;
68386;SDS011;55338;43.062;25.624;2023-04-06T11:23:45;8.47;;;3.33;;
68386;SDS011;55338;43.062;25.624;2023-04-06T11:26:14;7.60;;;3.47;;
68386;SDS011;55338;43.062;25.624;2023-04-06T11:28:41;7.82;;;4.18;;
68386;SDS011;55338;43.062;25.624;2023-04-06T11:31:11;12.38;;;4.63;;
68386;SDS011;55338;43.062;25.624;2023-04-06T11:33:38;9.23;;;4.55;;
68386;SDS011;55338;43.062;25.624;2023-04-06T11:36:05;8.80;;;4.07;;
68386;SDS011;55338;43.062;25.624;2023-04-06T11:38:31;7.97;;;4.50;;
68386;SDS011;55338;43.062;25.624;2023-04-06T11:41:00;7.75;;;3.20;;
68386;SDS011;55338;43.062;25.624;2023-04-06T11:43:30;5.97;;;3.65;;
68386;SDS011;55338;43.062;25.624;2023-04-06T11:45:59;6.85;;;4.45;;
68386;SDS011;55338;43.062;25.624;2023-04-06T11:48:30;6.37;;;3.90;;
68386;SDS011;55338;43.062;25.624;2023-04-06T11:50:57;8.82;;;5.13;;
68386;SDS011;55338;43.062;25.624;2023-04-06T11:53:26;8.38;;;4.32;;
68386;SDS011;55338;43.062;25.624;2023-04-06T11:55:56;9.40;;;4.22;;
68386;SDS011;55338;43.062;25.624;2023-04-06T11:58:22;10.20;;;4.22;;
68386;SDS011;55338;43.062;25.624;2023-04-06T12:00:48;8.13;;;3.87;;
68386;SDS011;55338;43.062;25.624;2023-04-06T12:03:14;8.07;;;4.20;;
68386;SDS011;55338;43.062;25.624;2023-04-06T12:05:40;8.57;;;4.30;;
68386;SDS011;55338;43.062;25.624;2023-04-06T12:08:05;6.27;;;3.60;;
68386;SDS011;55338;43.062;25.624;2023-04-06T12:10:31;7.82;;;3.80;;
68386;SDS011;55338;43.062;25.624;2023-04-06T12:12:57;6.45;;;3.58;;
68386;SDS011;55338;43.062;25.624;2023-04-06T12:15:23;7.77;;;3.80;;
68386;SDS011;55338;43.062;25.624;2023-04-06T12:17:50;9.57;;;4.80;;
68386;SDS011;55338;43.062;25.624;2023-04-06T12:20:15;8.67;;;4.80;;
68386;SDS011;55338;43.062;25.624;2023-04-06T12:22:41;9.35;;;4.07;;
68386;SDS011;55338;43.062;25.624;2023-04-06T12:25:07;6.30;;;3.78;;
68386;SDS011;55338;43.062;25.624;2023-04-06T12:27:33;7.63;;;3.88;;
68386;SDS011;55338;43.062;25.624;2023-04-06T12:30:00;10.83;;;4.17;;
68386;SDS011;55338;43.062;25.624;2023-04-06T12:32:25;7.43;;;4.20;;
68386;SDS011;55338;43.062;25.624;2023-04-06T12:34:52;8.27;;;4.85;;
68386;SDS011;55338;43.062;25.624;2023-04-06T12:37:18;9.93;;;4.10;;
68386;SDS011;55338;43.062;25.624;2023-04-06T12:39:45;8.85;;;4.88;;
68386;SDS011;55338;43.062;25.624;2023-04-06T12:42:11;9.63;;;4.03;;
68386;SDS011;55338;43.062;25.624;2023-04-06T12:44:38;9.88;;;4.90;;
68386;SDS011;55338;43.062;25.624;2023-04-06T12:47:07;10.77;;;4.32;;
68386;SDS011;55338;43.062;25.624;2023-04-06T12:49:33;7.15;;;4.45;;
68386;SDS011;55338;43.062;25.624;2023-04-06T12:51:59;6.43;;;4.37;;
68386;SDS011;55338;43.062;25.624;2023-04-06T12:54:25;9.45;;;4.07;;
68386;SDS011;55338;43.062;25.624;2023-04-06T12:56:52;8.85;;;4.50;;
68386;SDS011;55338;43.062;25.624;2023-04-06T12:59:18;7.20;;;4.47;;
68386;SDS011;55338;43.062;25.624;2023-04-06T13:01:47;6.50;;;4.13;;
68386;SDS011;55338;43.062;25.624;2023-04-06T13:04:12;10.80;;;4.82;;
68386;SDS011;55338;43.062;25.624;2023-04-06T13:06:38;8.73;;;4.30;;
68386;SDS011;55338;43.062;25.624;2023-04-06T13:09:04;8.07;;;4.68;;
68386;SDS011;55338;43.062;25.624;2023-04-06T13:11:30;8.73;;;3.88;;
68386;SDS011;55338;43.062;25.624;2023-04-06T13:13:56;6.82;;;4.28;;
68386;SDS011;55338;43.062;25.624;2023-04-06T13:16:22;7.20;;;4.60;;
68386;SDS011;55338;43.062;25.624;2023-04-06T13:18:48;7.95;;;3.97;;
68386;SDS011;55338;43.062;25.624;2023-04-06T13:21:17;6.93;;;4.60;;
68386;SDS011;55338;43.062;25.624;2023-04-06T13:23:43;6.55;;;3.80;;
68386;SDS011;55338;43.062;25.624;2023-04-06T13:26:12;7.10;;;3.95;;
68386;SDS011;55338;43.062;25.624;2023-04-06T13:28:40;6.38;;;4.00;;
68386;SDS011;55338;43.062;25.624;2023-04-06T13:31:06;9.07;;;3.85;;
68386;SDS011;55338;43.062;25.624;2023-04-06T13:33:32;5.55;;;3.90;;
68386;SDS011;55338;43.062;25.624;2023-04-06T13:35:58;7.38;;;4.32;;
68386;SDS011;55338;43.062;25.624;2023-04-06T13:38:24;7.78;;;3.97;;
68386;SDS011;55338;43.062;25.624;2023-04-06T13:40:50;6.03;;;3.50;;
68386;SDS011;55338;43.062;25.624;2023-04-06T13:43:16;7.82;;;3.60;;
68386;SDS011;55338;43.062;25.624;2023-04-06T13:45:54;5.88;;;3.60;;
68386;SDS011;55338;43.062;25.624;2023-04-06T13:48:21;7.22;;;3.20;;
68386;SDS011;55338;43.062;25.624;2023-04-06T13:50:46;7.18;;;3.70;;
68386;SDS011;55338;43.062;25.624;2023-04-06T13:53:12;6.18;;;3.17;;
68386;SDS011;55338;43.062;25.624;2023-04-06T13:55:38;5.93;;;3.35;;
68386;SDS011;55338;43.062;25.624;2023-04-06T13:58:04;6.07;;;3.30;;
68386;SDS011;55338;43.062;25.624;2023-04-06T14:00:30;6.78;;;3.67;;
68386;SDS011;55338;43.062;25.624;2023-04-06T14:02:56;7.00;;;3.53;;
68386;SDS011;55338;43.062;25.624;2023-04-06T14:05:21;7.50;;;4.50;;
68386;SDS011;55338;43.062;25.624;2023-04-06T14:07:48;12.63;;;4.20;;
68386;SDS011;55338;43.062;25.624;2023-04-06T14:10:15;7.22;;;3.53;;
68386;SDS011;55338;43.062;25.624;2023-04-06T14:12:44;12.32;;;4.88;;
68386;SDS011;55338;43.062;25.624;2023-04-06T14:15:13;10.55;;;4.13;;
68386;SDS011;55338;43.062;25.624;2023-04-06T14:17:38;9.15;;;3.95;;
68386;SDS011;55338;43.062;25.624;2023-04-06T14:20:07;5.97;;;3.20;;
68386;SDS011;55338;43.062;25.624;2023-04-06T14:22:39;10.23;;;5.22;;
68386;SDS011;55338;43.062;25.624;2023-04-06T14:25:06;7.55;;;3.78;;
68386;SDS011;55338;43.062;25.624;2023-04-06T14:27:32;7.38;;;3.85;;
68386;SDS011;55338;43.062;25.624;2023-04-06T14:29:58;6.90;;;4.10;;
68386;SDS011;55338;43.062;25.624;2023-04-06T14:32:23;8.20;;;3.75;;
68386;SDS011;55338;43.062;25.624;2023-04-06T14:34:50;7.60;;;4.05;;
68386;SDS011;55338;43.062;25.624;2023-04-06T14:37:16;7.63;;;4.30;;